createdAt,value
2023-01-26T00:00:40.703Z,96.90
2023-01-26T00:03:09.933Z,97.10
2023-01-26T00:05:42.566Z,97.10
2023-01-26T00:08:13.129Z,97.20
2023-01-26T00:10:51.116Z,97.20
2023-01-26T00:13:21.293Z,97.20
2023-01-26T00:15:51.164Z,97.40
2023-01-26T00:18:21.070Z,97.50
2023-01-26T00:20:51.516Z,97.50
2023-01-26T00:23:20.617Z,97.60
2023-01-26T00:25:49.771Z,97.40
2023-01-26T00:28:18.927Z,97.50
2023-01-26T00:30:48.094Z,97.20
2023-01-26T00:33:17.783Z,97.30
2023-01-26T00:35:55.839Z,97.20
2023-01-26T00:38:25.074Z,97.10
2023-01-26T00:40:54.249Z,97.00
2023-01-26T00:43:23.427Z,97.00
2023-01-26T00:45:52.735Z,96.70
2023-01-26T00:48:24.471Z,96.70
2023-01-26T00:50:54.748Z,96.60
2023-01-26T00:53:23.865Z,96.30
2023-01-26T00:55:56.903Z,96.20
2023-01-26T00:58:26.060Z,96.50
2023-01-26T01:00:55.824Z,96.50
2023-01-26T01:03:25.082Z,96.70
2023-01-26T01:05:54.311Z,96.60
2023-01-26T01:08:26.314Z,96.50
2023-01-26T01:11:07.687Z,96.60
2023-01-26T01:13:37.136Z,96.30
2023-01-26T01:16:12.603Z,96.30
2023-01-26T01:18:42.521Z,96.30
2023-01-26T01:21:15.233Z,96.20
2023-01-26T01:23:45.767Z,96.10
2023-01-26T01:26:16.582Z,96.00
2023-01-26T01:28:46.524Z,96.00
2023-01-26T01:31:18.219Z,96.00
2023-01-26T01:33:47.637Z,95.90
2023-01-26T01:36:19.136Z,95.70
2023-01-26T01:38:49.250Z,95.60
2023-01-26T01:41:23.857Z,95.50
2023-01-26T01:43:53.497Z,95.40
2023-01-26T01:46:59.612Z,94.90
2023-01-26T01:49:44.031Z,94.60
2023-01-26T01:52:27.310Z,94.50
2023-01-26T01:55:08.419Z,94.50
2023-01-26T01:57:53.859Z,94.40
2023-01-26T02:00:25.558Z,94.30
2023-01-26T02:03:20.289Z,94.10
2023-01-26T02:06:16.991Z,94.00
2023-01-26T02:08:59.115Z,93.80
2023-01-26T02:11:48.509Z,93.80
2023-01-26T02:14:18.664Z,93.70
2023-01-26T02:16:47.776Z,93.50
2023-01-26T02:19:33.640Z,93.50
2023-01-26T02:22:13.076Z,93.40
2023-01-26T02:24:43.021Z,93.40
2023-01-26T02:27:12.505Z,93.20
2023-01-26T02:29:42.922Z,93.10
2023-01-26T02:32:12.201Z,93.10
2023-01-26T02:34:41.523Z,92.90
2023-01-26T02:37:16.440Z,92.70
2023-01-26T02:40:01.176Z,92.80
2023-01-26T02:42:39.672Z,92.80
2023-01-26T02:45:20.097Z,92.50
2023-01-26T02:47:49.666Z,92.40
2023-01-26T02:50:19.210Z,92.10
2023-01-26T02:52:50.685Z,91.60
2023-01-26T02:55:29.684Z,91.60
2023-01-26T02:58:06.923Z,91.60
2023-01-26T03:00:41.744Z,91.30
2023-01-26T03:03:20.896Z,91.10
2023-01-26T03:05:50.419Z,91.30
2023-01-26T03:08:20.135Z,91.20
2023-01-26T03:10:49.399Z,91.00
2023-01-26T03:13:18.702Z,91.50
2023-01-26T03:15:56.448Z,90.90
2023-01-26T03:18:44.645Z,90.50
2023-01-26T03:21:36.097Z,90.40
2023-01-26T03:24:24.356Z,90.20
2023-01-26T03:27:12.044Z,90.20
2023-01-26T03:29:41.553Z,89.10
2023-01-26T03:32:11.023Z,89.10
2023-01-26T03:34:40.355Z,88.50
2023-01-26T03:37:09.555Z,87.80
2023-01-26T03:39:57.174Z,86.70
2023-01-26T03:42:44.987Z,86.80
2023-01-26T03:45:32.202Z,87.20
2023-01-26T03:48:31.495Z,87.20
2023-01-26T03:51:19.019Z,86.50
2023-01-26T03:54:06.223Z,86.20
2023-01-26T03:56:35.415Z,86.50
2023-01-26T03:59:12.083Z,85.30
2023-01-26T04:02:03.250Z,85.20
2023-01-26T04:04:50.685Z,84.00
2023-01-26T04:07:39.799Z,84.40
2023-01-26T04:10:10.057Z,84.50
2023-01-26T04:12:39.353Z,83.60
2023-01-26T04:15:27.632Z,83.60
2023-01-26T04:18:15.011Z,83.20
2023-01-26T04:21:03.299Z,83.10
2023-01-26T04:23:32.466Z,82.50
2023-01-26T04:26:01.559Z,82.30
2023-01-26T04:28:30.633Z,82.10
2023-01-26T04:30:59.868Z,82.00
2023-01-26T04:33:29.053Z,81.10
2023-01-26T04:35:58.616Z,80.60
2023-01-26T04:38:27.787Z,80.90
2023-01-26T04:40:57.248Z,79.90
2023-01-26T04:43:26.654Z,79.20
2023-01-26T04:46:08.530Z,78.30
2023-01-26T04:48:38.397Z,77.10
2023-01-26T04:51:22.143Z,76.10
2023-01-26T04:53:52.382Z,76.40
2023-01-26T04:56:35.241Z,75.40
2023-01-26T04:59:09.340Z,75.30
2023-01-26T05:01:39.543Z,75.40
2023-01-26T05:04:09.970Z,75.00
2023-01-26T05:06:39.996Z,74.10
2023-01-26T05:09:09.308Z,74.00
2023-01-26T05:11:38.949Z,74.30
2023-01-26T05:14:08.399Z,73.70
2023-01-26T05:16:37.796Z,73.40
2023-01-26T05:19:07.315Z,73.60
2023-01-26T05:21:36.433Z,74.00
2023-01-26T05:24:05.738Z,73.80
2023-01-26T05:26:34.868Z,72.90
2023-01-26T05:29:04.076Z,72.70
2023-01-26T05:31:33.399Z,73.10
2023-01-26T05:34:02.524Z,73.60
2023-01-26T05:36:31.634Z,73.60
2023-01-26T05:39:00.753Z,74.00
2023-01-26T05:41:29.835Z,74.00
2023-01-26T05:43:58.943Z,73.50
2023-01-26T05:46:28.083Z,74.30
2023-01-26T05:48:57.267Z,74.20
2023-01-26T05:51:26.365Z,73.80
2023-01-26T05:53:55.414Z,73.40
2023-01-26T05:56:24.561Z,72.50
2023-01-26T05:58:53.635Z,71.50
2023-01-26T06:01:22.733Z,71.10
2023-01-26T06:03:52.070Z,71.30
2023-01-26T06:06:21.157Z,71.80
2023-01-26T06:08:50.319Z,71.10
2023-01-26T06:11:19.492Z,72.20
2023-01-26T06:13:49.687Z,70.80
2023-01-26T06:16:19.375Z,71.10
2023-01-26T06:18:50.912Z,71.00
2023-01-26T06:21:20.392Z,70.80
2023-01-26T06:23:49.535Z,70.00
2023-01-26T06:26:19.117Z,70.40
2023-01-26T06:28:48.238Z,70.20
2023-01-26T06:31:17.774Z,71.00
2023-01-26T06:33:47.173Z,68.70
2023-01-26T06:36:17.290Z,69.50
2023-01-26T06:38:51.827Z,69.90
2023-01-26T06:41:21.011Z,69.50
2023-01-26T06:43:51.086Z,69.20
2023-01-26T06:46:20.708Z,69.40
2023-01-26T06:48:49.810Z,69.40
2023-01-26T06:51:21.760Z,69.20
2023-01-26T06:53:59.892Z,69.20
2023-01-26T06:56:30.072Z,68.80
2023-01-26T06:58:59.168Z,68.80
2023-01-26T07:01:30.114Z,68.60
2023-01-26T07:03:59.459Z,69.00
2023-01-26T07:06:28.574Z,68.70
2023-01-26T07:08:57.686Z,67.50
2023-01-26T07:11:27.010Z,67.10
2023-01-26T07:13:56.078Z,67.10
2023-01-26T07:16:25.340Z,68.00
2023-01-26T07:18:56.855Z,67.70
2023-01-26T07:21:26.374Z,67.50
2023-01-26T07:23:57.296Z,68.10
2023-01-26T07:26:26.699Z,68.10
2023-01-26T07:28:56.134Z,68.00
2023-01-26T07:31:25.541Z,68.20
2023-01-26T07:33:54.789Z,67.50
2023-01-26T07:36:23.982Z,67.50
2023-01-26T07:38:53.299Z,66.80
2023-01-26T07:41:22.475Z,67.20
2023-01-26T07:43:52.871Z,66.90
2023-01-26T07:46:22.247Z,66.50
2023-01-26T07:48:51.903Z,66.50
2023-01-26T07:51:21.054Z,66.10
2023-01-26T07:53:51.038Z,65.80
2023-01-26T07:56:21.500Z,65.20
2023-01-26T07:58:56.993Z,65.60
2023-01-26T08:01:26.669Z,66.40
2023-01-26T08:03:57.287Z,66.20
2023-01-26T08:06:26.823Z,66.70
2023-01-26T08:08:56.461Z,66.50
2023-01-26T08:11:26.831Z,65.90
2023-01-26T08:13:57.349Z,65.90
2023-01-26T08:16:26.567Z,66.10
2023-01-26T08:18:55.895Z,65.30
2023-01-26T08:21:25.054Z,65.30
2023-01-26T08:23:54.700Z,65.70
2023-01-26T08:26:24.085Z,66.40
2023-01-26T08:28:53.256Z,65.80
2023-01-26T08:31:23.606Z,66.20
2023-01-26T08:33:55.305Z,65.60
2023-01-26T08:36:25.225Z,66.00
2023-01-26T08:38:55.679Z,66.70
2023-01-26T08:41:24.783Z,65.70
2023-01-26T08:43:54.085Z,65.50
2023-01-26T08:46:23.307Z,64.90
2023-01-26T08:48:52.464Z,64.60
2023-01-26T08:51:21.659Z,65.00
2023-01-26T08:53:50.877Z,64.80
2023-01-26T08:56:19.994Z,64.90
2023-01-26T08:58:50.064Z,65.00
2023-01-26T09:01:19.609Z,65.20
2023-01-26T09:03:48.754Z,64.60
2023-01-26T09:06:17.997Z,65.20
2023-01-26T09:08:47.270Z,65.10
2023-01-26T09:11:17.165Z,65.00
2023-01-26T09:13:46.463Z,65.30
2023-01-26T09:16:21.923Z,64.60
2023-01-26T09:18:58.168Z,65.10
2023-01-26T09:21:27.411Z,64.80
2023-01-26T09:24:01.407Z,64.20
2023-01-26T09:26:32.620Z,64.20
2023-01-26T09:29:01.867Z,64.70
2023-01-26T09:31:31.093Z,64.40
2023-01-26T09:34:00.336Z,63.90
2023-01-26T09:36:29.580Z,65.20
2023-01-26T09:38:58.730Z,64.60
2023-01-26T09:42:02.300Z,64.80
2023-01-26T09:44:47.465Z,65.10
2023-01-26T09:47:33.321Z,64.30
2023-01-26T09:50:20.500Z,64.30
2023-01-26T09:53:05.385Z,64.30
2023-01-26T09:55:35.184Z,64.60
2023-01-26T09:59:04.720Z,64.30
2023-01-26T10:02:24.463Z,65.00
2023-01-26T10:05:03.385Z,65.80
2023-01-26T10:07:32.670Z,65.40
2023-01-26T10:10:02.031Z,65.40
2023-01-26T10:12:37.671Z,65.80
2023-01-26T10:15:40.029Z,65.70
2023-01-26T10:18:23.384Z,66.00
2023-01-26T10:21:00.536Z,65.80
2023-01-26T10:23:35.920Z,66.00
2023-01-26T10:26:22.122Z,66.20
2023-01-26T10:28:54.363Z,66.30
2023-01-26T10:31:34.521Z,66.30
2023-01-26T10:34:27.969Z,66.30
2023-01-26T10:37:31.116Z,66.50
2023-01-26T10:40:08.514Z,66.90
2023-01-26T10:42:40.640Z,66.90
2023-01-26T10:45:47.325Z,67.20
2023-01-26T10:48:22.481Z,67.20
2023-01-26T10:50:52.784Z,67.40
2023-01-26T10:53:31.704Z,68.70
2023-01-26T10:56:18.204Z,69.30
2023-01-26T10:58:56.360Z,70.10
2023-01-26T11:01:28.549Z,70.70
2023-01-26T11:04:16.203Z,70.70
2023-01-26T11:06:45.690Z,71.10
2023-01-26T11:09:35.712Z,71.40
2023-01-26T11:12:07.030Z,71.90
2023-01-26T11:14:36.470Z,72.20
2023-01-26T11:17:28.694Z,72.50
2023-01-26T11:20:30.365Z,72.60
2023-01-26T11:23:47.685Z,72.70
2023-01-26T11:26:38.079Z,73.50
2023-01-26T11:29:32.739Z,74.30
2023-01-26T11:32:04.446Z,74.50
2023-01-26T11:34:53.876Z,75.10
2023-01-26T11:37:39.820Z,75.40
2023-01-26T11:40:44.931Z,75.90
2023-01-26T11:43:48.925Z,76.30
2023-01-26T11:46:53.453Z,76.40
2023-01-26T11:49:40.994Z,76.70
2023-01-26T11:52:49.642Z,77.20
2023-01-26T11:56:08.643Z,77.40
2023-01-26T11:58:49.667Z,77.60
2023-01-26T12:02:02.312Z,77.80
2023-01-26T12:04:38.106Z,78.60
2023-01-26T12:07:33.634Z,78.80
2023-01-26T12:10:08.539Z,78.80
2023-01-26T12:12:49.231Z,79.00
2023-01-26T12:15:35.954Z,78.80
2023-01-26T12:18:18.297Z,79.20
2023-01-26T12:21:02.418Z,79.60
2023-01-26T12:23:49.529Z,79.60
2023-01-26T12:26:27.033Z,79.50
2023-01-26T12:29:18.231Z,79.70
2023-01-26T12:32:01.935Z,80.00
2023-01-26T12:34:34.887Z,80.20
2023-01-26T12:37:48.952Z,80.40
2023-01-26T12:41:00.777Z,80.50
2023-01-26T12:43:59.787Z,81.20
2023-01-26T12:46:36.205Z,82.60
2023-01-26T12:49:23.320Z,83.30
2023-01-26T12:52:27.747Z,83.80
2023-01-26T12:55:13.508Z,83.90
2023-01-26T12:57:59.146Z,84.10
2023-01-26T13:00:37.801Z,84.00
2023-01-26T13:03:33.100Z,84.60
2023-01-26T13:06:29.250Z,84.50
2023-01-26T13:09:20.343Z,84.50
2023-01-26T13:12:00.165Z,84.70
2023-01-26T13:14:39.129Z,84.60
2023-01-26T13:17:17.613Z,84.70
2023-01-26T13:19:48.271Z,84.70
2023-01-26T13:22:26.317Z,83.60
2023-01-26T13:25:13.248Z,84.50
2023-01-26T13:27:47.170Z,84.80
2023-01-26T13:30:27.704Z,84.90
2023-01-26T13:33:24.954Z,84.70
2023-01-26T13:35:57.249Z,85.00
2023-01-26T13:38:59.879Z,84.90
2023-01-26T13:41:29.172Z,85.00
2023-01-26T13:44:23.171Z,85.30
2023-01-26T13:47:16.743Z,85.20
2023-01-26T13:49:46.459Z,85.30
2023-01-26T13:52:28.656Z,85.70
2023-01-26T13:55:01.324Z,85.70
2023-01-26T13:57:32.603Z,86.00
2023-01-26T14:00:02.955Z,85.90
2023-01-26T14:02:36.539Z,85.90
2023-01-26T14:05:06.133Z,86.30
2023-01-26T14:07:45.754Z,86.40
2023-01-26T14:10:21.298Z,86.70
2023-01-26T14:12:58.870Z,86.90
2023-01-26T14:15:34.292Z,86.80
2023-01-26T14:18:07.447Z,87.10
2023-01-26T14:20:42.347Z,87.20
2023-01-26T14:23:19.813Z,87.60
2023-01-26T14:26:23.341Z,87.50
2023-01-26T14:28:53.125Z,87.70
2023-01-26T14:31:26.805Z,88.50
2023-01-26T14:34:00.743Z,89.00
2023-01-26T14:36:40.085Z,89.90
2023-01-26T14:39:22.260Z,89.90
2023-01-26T14:41:52.033Z,89.30
2023-01-26T14:44:21.223Z,89.90
2023-01-26T14:47:22.285Z,90.00
2023-01-26T14:50:14.285Z,90.10
2023-01-26T14:52:47.982Z,90.30
2023-01-26T14:55:29.371Z,90.60
2023-01-26T14:58:01.664Z,90.80
2023-01-26T15:00:38.171Z,91.00
2023-01-26T15:03:19.377Z,91.10
2023-01-26T15:05:48.652Z,91.00
2023-01-26T15:08:24.639Z,91.00
2023-01-26T15:11:23.372Z,91.30
2023-01-26T15:13:57.270Z,91.20
2023-01-26T15:16:28.091Z,91.10
2023-01-26T15:19:07.112Z,91.20
2023-01-26T15:21:41.916Z,91.30
2023-01-26T15:24:16.731Z,91.70
2023-01-26T15:26:46.387Z,92.00
2023-01-26T15:29:33.357Z,93.10
2023-01-26T15:32:03.768Z,92.60
2023-01-26T15:34:43.132Z,92.70
2023-01-26T15:37:35.763Z,92.70
2023-01-26T15:40:05.361Z,92.90
2023-01-26T15:42:34.485Z,93.30
2023-01-26T15:45:03.655Z,93.30
2023-01-26T15:47:32.792Z,93.40
2023-01-26T15:50:01.878Z,93.20
2023-01-26T15:52:31.633Z,93.20
2023-01-26T15:55:00.737Z,93.30
2023-01-26T15:57:31.587Z,93.10
2023-01-26T16:00:03.533Z,93.20
2023-01-26T16:02:33.618Z,93.30
2023-01-26T16:05:02.755Z,93.40
2023-01-26T16:07:32.000Z,93.30
2023-01-26T16:10:03.391Z,93.40
2023-01-26T16:12:32.684Z,93.50
2023-01-26T16:15:02.742Z,93.50
2023-01-26T16:17:32.049Z,93.50
2023-01-26T16:20:03.971Z,93.30
2023-01-26T16:22:33.155Z,93.30
2023-01-26T16:25:05.053Z,93.40
2023-01-26T16:27:37.201Z,93.40
2023-01-26T16:30:09.193Z,93.30
2023-01-26T16:32:38.329Z,93.30
2023-01-26T16:35:33.695Z,93.30
2023-01-26T16:38:03.077Z,93.30
2023-01-26T16:40:32.417Z,93.50
2023-01-26T16:43:03.478Z,93.60
2023-01-26T16:45:33.063Z,93.70
2023-01-26T16:48:02.664Z,93.60
2023-01-26T16:50:32.105Z,93.50
2023-01-26T16:53:30.089Z,93.70
2023-01-26T16:55:59.186Z,93.80
2023-01-26T16:58:28.982Z,93.80
2023-01-26T17:00:58.844Z,94.10
2023-01-26T17:03:27.913Z,94.20
2023-01-26T17:05:58.706Z,94.10
2023-01-26T17:08:27.803Z,94.30
2023-01-26T17:11:02.585Z,94.30
2023-01-26T17:13:32.653Z,94.30
2023-01-26T17:16:01.988Z,94.70
2023-01-26T17:18:34.358Z,94.80
2023-01-26T17:21:05.799Z,94.80
2023-01-26T17:23:35.240Z,94.80
2023-01-26T17:26:04.766Z,94.90
2023-01-26T17:28:34.106Z,95.00
2023-01-26T17:31:10.722Z,95.00
2023-01-26T17:33:40.533Z,94.90
2023-01-26T17:36:10.520Z,95.00
2023-01-26T17:38:39.831Z,95.30
2023-01-26T17:41:09.344Z,95.30
2023-01-26T17:43:38.836Z,95.20
2023-01-26T17:46:15.866Z,95.00
2023-01-26T17:48:45.946Z,95.10
2023-01-26T17:51:22.535Z,95.00
2023-01-26T17:53:52.477Z,95.00
2023-01-26T17:56:23.319Z,94.90
2023-01-26T17:58:57.157Z,95.00
2023-01-26T18:01:28.036Z,95.00
2023-01-26T18:03:57.367Z,95.00
2023-01-26T18:06:26.759Z,95.10
2023-01-26T18:08:56.263Z,95.10
2023-01-26T18:11:25.523Z,95.20
2023-01-26T18:13:56.642Z,95.30
2023-01-26T18:16:26.573Z,95.50
2023-01-26T18:19:02.220Z,95.60
2023-01-26T18:21:33.224Z,95.60
2023-01-26T18:24:06.272Z,95.60
2023-01-26T18:26:39.125Z,95.60
2023-01-26T18:29:09.798Z,95.50
2023-01-26T18:31:44.450Z,95.50
2023-01-26T18:34:14.051Z,95.50
2023-01-26T18:36:43.272Z,95.90
2023-01-26T18:39:17.687Z,95.60
2023-01-26T18:41:47.231Z,95.40
2023-01-26T18:44:16.527Z,95.50
2023-01-26T18:46:45.722Z,95.60
2023-01-26T18:49:14.851Z,95.60
2023-01-26T18:51:49.259Z,95.70
2023-01-26T18:54:21.026Z,95.90
2023-01-26T18:56:50.317Z,95.90
2023-01-26T18:59:19.647Z,95.70
2023-01-26T19:01:49.320Z,95.70
2023-01-26T19:04:18.577Z,95.80
2023-01-26T19:06:48.694Z,95.90
2023-01-26T19:09:17.918Z,95.90
2023-01-26T19:11:47.215Z,95.90
2023-01-26T19:14:16.532Z,96.00
2023-01-26T19:16:48.591Z,96.00
2023-01-26T19:19:18.157Z,95.80
2023-01-26T19:21:50.116Z,95.60
2023-01-26T19:24:19.718Z,95.60
2023-01-26T19:26:49.037Z,95.50
2023-01-26T19:29:18.470Z,95.40
2023-01-26T19:31:47.783Z,95.60
2023-01-26T19:34:18.343Z,95.90
2023-01-26T19:36:47.934Z,95.70
2023-01-26T19:39:17.187Z,95.70
2023-01-26T19:41:47.280Z,95.70
2023-01-26T19:44:16.522Z,95.80
2023-01-26T19:46:45.729Z,95.50
2023-01-26T19:49:16.111Z,95.60
2023-01-26T19:51:45.269Z,95.50
2023-01-26T19:54:15.569Z,95.60
2023-01-26T19:56:44.933Z,95.60
2023-01-26T19:59:14.485Z,95.90
2023-01-26T20:01:43.715Z,95.90
2023-01-26T20:04:16.417Z,95.80
2023-01-26T20:06:45.653Z,95.70
2023-01-26T20:09:14.862Z,95.70
2023-01-26T20:11:44.087Z,95.70
2023-01-26T20:14:14.207Z,95.60
2023-01-26T20:16:43.526Z,95.60
2023-01-26T20:19:15.035Z,95.60
2023-01-26T20:21:44.358Z,95.70
2023-01-26T20:24:18.148Z,95.70
2023-01-26T20:26:47.786Z,95.80
2023-01-26T20:29:20.708Z,95.70
2023-01-26T20:31:51.404Z,95.60
2023-01-26T20:34:22.943Z,95.60
2023-01-26T20:36:52.614Z,95.80
2023-01-26T20:39:26.054Z,95.90
2023-01-26T20:41:56.524Z,96.00
2023-01-26T20:44:25.645Z,95.90
2023-01-26T20:46:54.847Z,96.00
2023-01-26T20:49:24.224Z,96.00
2023-01-26T20:51:53.361Z,95.90
2023-01-26T20:54:23.231Z,95.90
2023-01-26T20:56:52.459Z,95.90
2023-01-26T20:59:23.082Z,96.00
2023-01-26T21:01:52.227Z,96.00
2023-01-26T21:04:21.578Z,96.10
2023-01-26T21:06:50.845Z,96.20
2023-01-26T21:09:19.998Z,96.00
2023-01-26T21:11:49.147Z,96.20
2023-01-26T21:14:18.298Z,96.30
2023-01-26T21:16:47.421Z,96.20
2023-01-26T21:19:16.679Z,96.30
2023-01-26T21:21:46.895Z,96.30
2023-01-26T21:24:16.278Z,96.30
2023-01-26T21:26:45.414Z,96.40
2023-01-26T21:29:17.866Z,96.30
2023-01-26T21:31:47.093Z,96.30
2023-01-26T21:34:16.434Z,96.30
2023-01-26T21:36:45.707Z,96.30
2023-01-26T21:39:16.284Z,96.30
2023-01-26T21:41:57.405Z,96.20
2023-01-26T21:44:33.268Z,96.30
2023-01-26T21:47:04.989Z,96.30
2023-01-26T21:49:34.091Z,96.40
2023-01-26T21:52:21.565Z,96.40
2023-01-26T21:54:50.668Z,96.40
2023-01-26T21:57:37.813Z,96.20
2023-01-26T22:00:08.344Z,96.10
2023-01-26T22:02:37.440Z,96.20
2023-01-26T22:05:07.051Z,96.20
2023-01-26T22:07:36.228Z,96.20
2023-01-26T22:10:07.104Z,96.10
2023-01-26T22:12:36.182Z,96.20
2023-01-26T22:15:06.718Z,96.40
2023-01-26T22:17:36.383Z,96.30
2023-01-26T22:20:06.826Z,96.40
2023-01-26T22:22:36.128Z,96.60
2023-01-26T22:25:05.471Z,96.50
2023-01-26T22:27:34.553Z,96.60
2023-01-26T22:30:03.727Z,96.70
2023-01-26T22:32:32.870Z,96.70
2023-01-26T22:35:01.940Z,96.80
2023-01-26T22:37:31.508Z,96.90
2023-01-26T22:40:00.612Z,97.00
2023-01-26T22:42:30.129Z,96.90
2023-01-26T22:44:59.632Z,96.90
2023-01-26T22:47:29.204Z,97.10
2023-01-26T22:49:58.453Z,97.10
2023-01-26T22:52:27.594Z,97.10
2023-01-26T22:54:56.696Z,96.90
2023-01-26T22:57:25.911Z,96.90
2023-01-26T22:59:55.045Z,96.80
2023-01-26T23:02:24.321Z,96.90
2023-01-26T23:04:53.462Z,96.80
2023-01-26T23:07:22.530Z,96.90
2023-01-26T23:09:51.635Z,96.90
2023-01-26T23:12:20.807Z,96.90
2023-01-26T23:14:50.063Z,97.00
2023-01-26T23:17:19.212Z,96.90
2023-01-26T23:19:48.750Z,97.00
2023-01-26T23:22:18.366Z,96.80
2023-01-26T23:25:07.268Z,96.90
2023-01-26T23:27:36.332Z,96.80
2023-01-26T23:30:05.924Z,96.90
2023-01-26T23:32:35.059Z,96.90
2023-01-26T23:35:04.357Z,97.10
2023-01-26T23:37:33.422Z,97.10
2023-01-26T23:40:02.526Z,97.20
2023-01-26T23:42:35.728Z,97.10
2023-01-26T23:45:08.149Z,97.20
2023-01-26T23:47:37.365Z,97.10
2023-01-26T23:50:07.251Z,97.10
2023-01-26T23:52:36.327Z,97.00
2023-01-26T23:55:05.724Z,97.10
2023-01-26T23:57:34.809Z,97.10
